createdAt,value
2022-10-24T00:01:01.066Z,98198.13
2022-10-24T00:03:35.930Z,98198.78
2022-10-24T00:06:08.078Z,98214.84
2022-10-24T00:08:36.846Z,98206.25
2022-10-24T00:11:10.197Z,98217.91
2022-10-24T00:13:38.761Z,98218.13
2022-10-24T00:16:07.678Z,98224.78
2022-10-24T00:18:36.122Z,98236.66
2022-10-24T00:21:05.245Z,98241.34
2022-10-24T00:23:35.158Z,98225.38
2022-10-24T00:26:04.290Z,98228.00
2022-10-24T00:28:33.334Z,98213.69
2022-10-24T00:31:01.950Z,98215.81
2022-10-24T00:33:30.197Z,98216.78
2022-10-24T00:35:58.338Z,98221.81
2022-10-24T00:38:26.860Z,98208.16
2022-10-24T00:40:56.525Z,98205.91
2022-10-24T00:43:26.345Z,98207.72
2022-10-24T00:45:56.067Z,98215.69
2022-10-24T00:48:26.938Z,98226.22
2022-10-24T00:50:58.361Z,98241.88
2022-10-24T00:53:27.689Z,98235.75
2022-10-24T00:56:00.007Z,98219.06
2022-10-24T00:58:31.496Z,98223.50
2022-10-24T01:00:59.772Z,98211.38
2022-10-24T01:03:28.510Z,98209.63
2022-10-24T01:06:07.867Z,98208.91
2022-10-24T01:08:40.957Z,98209.09
2022-10-24T01:11:18.813Z,98195.91
2022-10-24T01:13:53.108Z,98199.22
2022-10-24T01:16:25.831Z,98203.94
2022-10-24T01:18:57.382Z,98201.53
2022-10-24T01:21:30.565Z,98195.47
2022-10-24T01:24:07.298Z,98201.66
2022-10-24T01:27:01.036Z,98213.00
2022-10-24T01:29:43.258Z,98209.59
2022-10-24T01:32:15.088Z,98199.91
2022-10-24T01:34:46.356Z,98206.84
2022-10-24T01:37:18.525Z,98203.09
2022-10-24T01:39:50.084Z,98196.94
2022-10-24T01:42:18.863Z,98189.19
2022-10-24T01:44:50.384Z,98187.69
2022-10-24T01:47:20.941Z,98190.03
2022-10-24T01:49:52.817Z,98205.47
2022-10-24T01:52:21.784Z,98200.66
2022-10-24T01:54:52.185Z,98189.63
2022-10-24T01:57:20.290Z,98202.34
2022-10-24T01:59:50.444Z,98201.94
2022-10-24T02:02:21.547Z,98198.50
2022-10-24T02:04:53.353Z,98188.22
2022-10-24T02:07:23.222Z,98191.44
2022-10-24T02:09:55.054Z,98201.81
2022-10-24T02:12:27.413Z,98203.34
2022-10-24T02:14:59.842Z,98206.44
2022-10-24T02:19:57.507Z,98188.19
2022-10-24T02:22:29.521Z,98188.75
2022-10-24T02:25:02.426Z,98185.94
2022-10-24T02:27:34.422Z,98177.81
2022-10-24T02:30:07.928Z,98191.06
2022-10-24T02:32:40.125Z,98184.44
2022-10-24T02:35:09.997Z,98171.75
2022-10-24T02:37:41.390Z,98170.34
2022-10-24T02:40:09.937Z,98162.25
2022-10-24T02:42:38.309Z,98176.31
2022-10-24T02:45:11.209Z,98160.91
2022-10-24T02:47:41.977Z,98151.31
2022-10-24T02:50:10.912Z,98135.91
2022-10-24T02:52:39.302Z,98147.34
2022-10-24T02:55:08.440Z,98147.53
2022-10-24T02:57:36.588Z,98160.22
2022-10-24T03:00:05.543Z,98151.41
2022-10-24T03:02:35.595Z,98155.34
2022-10-24T03:05:04.082Z,98151.56
2022-10-24T03:07:32.231Z,98166.19
2022-10-24T03:10:00.680Z,98168.63
2022-10-24T03:12:28.950Z,98173.34
2022-10-24T03:14:57.337Z,98170.56
2022-10-24T03:17:25.471Z,98172.72
2022-10-24T03:19:55.452Z,98176.16
2022-10-24T03:22:25.463Z,98170.13
2022-10-24T03:24:57.055Z,98146.19
2022-10-24T03:27:25.110Z,98149.41
2022-10-24T03:29:53.426Z,98148.59
2022-10-24T03:32:21.605Z,98158.59
2022-10-24T03:34:49.964Z,98159.41
2022-10-24T03:37:19.898Z,98159.78
2022-10-24T03:39:48.382Z,98146.31
2022-10-24T03:42:16.614Z,98152.66
2022-10-24T03:44:44.934Z,98149.47
2022-10-24T03:47:13.188Z,98151.84
2022-10-24T03:49:41.507Z,98150.09
2022-10-24T03:52:09.985Z,98143.81
2022-10-24T03:54:39.761Z,98146.75
2022-10-24T03:57:10.021Z,98140.84
2022-10-24T03:59:38.967Z,98139.88
2022-10-24T04:02:07.040Z,98135.25
2022-10-24T04:04:35.580Z,98135.78
2022-10-24T04:07:05.769Z,98135.81
2022-10-24T04:09:34.291Z,98142.47
2022-10-24T04:12:03.922Z,98143.97
2022-10-24T04:14:32.305Z,98154.19
2022-10-24T04:17:00.560Z,98140.50
2022-10-24T04:19:28.945Z,98135.09
2022-10-24T04:21:57.236Z,98132.72
2022-10-24T04:24:25.552Z,98136.47
2022-10-24T04:26:53.732Z,98140.38
2022-10-24T04:29:23.587Z,98151.56
2022-10-24T04:31:51.787Z,98150.16
2022-10-24T04:34:20.027Z,98134.09
2022-10-24T04:36:48.298Z,98133.97
2022-10-24T04:39:16.549Z,98116.63
2022-10-24T04:41:44.848Z,98115.06
2022-10-24T04:44:13.205Z,98103.38
2022-10-24T04:46:42.712Z,98108.78
2022-10-24T04:49:11.152Z,98119.00
2022-10-24T04:51:39.327Z,98117.50
2022-10-24T04:54:08.506Z,98110.53
2022-10-24T04:56:36.569Z,98113.31
2022-10-24T04:59:05.046Z,98112.84
2022-10-24T05:01:33.684Z,98111.28
2022-10-24T05:04:03.546Z,98116.34
2022-10-24T05:06:31.777Z,98114.41
2022-10-24T05:09:00.110Z,98124.66
2022-10-24T05:11:28.323Z,98123.56
2022-10-24T05:13:56.643Z,98117.81
2022-10-24T05:16:24.837Z,98112.75
2022-10-24T05:18:53.106Z,98123.81
2022-10-24T05:21:22.726Z,98112.25
2022-10-24T05:23:51.191Z,98103.97
2022-10-24T05:26:19.233Z,98124.88
2022-10-24T05:28:51.599Z,98118.78
2022-10-24T05:31:21.196Z,98112.09
2022-10-24T05:33:49.642Z,98118.41
2022-10-24T05:36:17.775Z,98118.59
2022-10-24T05:38:47.527Z,98123.88
2022-10-24T05:41:15.586Z,98118.00
2022-10-24T05:43:43.949Z,98126.78
2022-10-24T05:46:12.143Z,98128.19
2022-10-24T05:48:40.446Z,98129.03
2022-10-24T05:51:08.495Z,98121.75
2022-10-24T05:53:37.148Z,98137.88
2022-10-24T05:56:07.305Z,98120.34
2022-10-24T05:58:35.853Z,98128.34
2022-10-24T06:01:04.012Z,98127.28
2022-10-24T06:03:32.325Z,98119.66
2022-10-24T06:06:05.254Z,98121.25
2022-10-24T06:08:35.038Z,98136.63
2022-10-24T06:11:03.454Z,98127.78
2022-10-24T06:13:35.382Z,98150.22
2022-10-24T06:16:04.633Z,98157.19
2022-10-24T06:18:33.586Z,98177.31
2022-10-24T06:21:02.331Z,98169.28
2022-10-24T06:23:31.107Z,98131.44
2022-10-24T06:25:59.600Z,98147.84
2022-10-24T06:28:27.936Z,98158.09
2022-10-24T06:30:57.613Z,98157.06
2022-10-24T06:33:26.084Z,98161.00
2022-10-24T06:35:54.324Z,98158.69
2022-10-24T06:38:22.699Z,98159.22
2022-10-24T06:40:50.793Z,98154.94
2022-10-24T06:43:19.668Z,98160.41
2022-10-24T06:45:47.752Z,98152.97
2022-10-24T06:48:17.660Z,98153.88
2022-10-24T06:50:45.728Z,98148.47
2022-10-24T06:53:15.667Z,98151.88
2022-10-24T06:55:43.858Z,98156.38
2022-10-24T06:58:12.820Z,98153.31
2022-10-24T07:00:40.894Z,98165.44
2022-10-24T07:03:09.210Z,98171.59
2022-10-24T07:05:39.801Z,98163.34
2022-10-24T07:08:08.165Z,98156.91
2022-10-24T07:10:36.381Z,98151.59
2022-10-24T07:13:04.871Z,98163.50
2022-10-24T07:15:36.034Z,98173.09
2022-10-24T07:18:07.118Z,98176.75
2022-10-24T07:20:35.437Z,98181.22
2022-10-24T07:23:05.269Z,98172.22
2022-10-24T07:25:33.488Z,98159.59
2022-10-24T07:28:01.897Z,98165.22
2022-10-24T07:30:30.118Z,98162.59
2022-10-24T07:32:58.548Z,98156.91
2022-10-24T07:35:27.036Z,98163.56
2022-10-24T07:37:55.389Z,98157.47
2022-10-24T07:40:25.021Z,98150.28
2022-10-24T07:42:53.293Z,98138.19
2022-10-24T07:45:21.383Z,98148.16
2022-10-24T07:47:50.068Z,98134.16
2022-10-24T07:50:18.374Z,98139.72
2022-10-24T07:52:46.686Z,98130.25
2022-10-24T07:55:15.011Z,98133.38
2022-10-24T07:57:44.838Z,98120.00
2022-10-24T08:00:14.172Z,98132.59
2022-10-24T08:02:42.848Z,98125.44
2022-10-24T08:05:12.094Z,98110.16
2022-10-24T08:07:40.376Z,98105.38
2022-10-24T08:10:10.431Z,98115.28
2022-10-24T08:12:38.697Z,98139.22
2022-10-24T08:15:08.961Z,98150.94
2022-10-24T08:17:37.536Z,98164.66
2022-10-24T08:20:06.449Z,98158.22
2022-10-24T08:22:34.908Z,98145.97
2022-10-24T08:25:06.176Z,98142.63
2022-10-24T08:27:34.275Z,98127.75
2022-10-24T08:30:02.501Z,98116.66
2022-10-24T08:32:32.226Z,98110.34
2022-10-24T08:35:00.511Z,98117.31
2022-10-24T08:37:28.963Z,98118.91
2022-10-24T08:39:57.179Z,98127.78
2022-10-24T08:42:26.294Z,98139.59
2022-10-24T08:44:55.351Z,98142.69
2022-10-24T08:47:30.685Z,98150.72
2022-10-24T08:50:05.890Z,98146.25
2022-10-24T08:52:36.878Z,98169.81
2022-10-24T08:55:20.272Z,98154.34
2022-10-24T08:57:54.985Z,98140.28
2022-10-24T09:00:26.307Z,98126.38
2022-10-24T09:02:57.396Z,98129.94
2022-10-24T09:05:29.669Z,98123.59
2022-10-24T09:08:02.650Z,98133.16
2022-10-24T09:10:39.996Z,98134.63
2022-10-24T09:13:14.187Z,98136.31
2022-10-24T09:15:43.317Z,98157.03
2022-10-24T09:18:16.982Z,98162.34
2022-10-24T09:20:46.696Z,98152.53
2022-10-24T09:23:15.479Z,98144.53
2022-10-24T09:25:45.883Z,98147.94
2022-10-24T09:28:14.283Z,98146.63
2022-10-24T09:30:42.980Z,98158.38
2022-10-24T09:33:20.466Z,98165.19
2022-10-24T09:35:51.259Z,98161.03
2022-10-24T09:38:33.696Z,98157.03
2022-10-24T09:41:04.985Z,98159.03
2022-10-24T09:43:38.877Z,98154.28
2022-10-24T09:46:09.096Z,98151.91
2022-10-24T09:48:46.404Z,98145.97
2022-10-24T09:51:26.409Z,98138.69
2022-10-24T09:54:05.493Z,98141.91
2022-10-24T09:56:38.880Z,98153.97
2022-10-24T09:59:20.667Z,98155.47
2022-10-24T10:01:49.644Z,98144.97
2022-10-24T10:04:19.364Z,98128.09
2022-10-24T10:06:51.146Z,98133.09
2022-10-24T10:09:27.175Z,98131.94
2022-10-24T10:12:03.993Z,98131.19
2022-10-24T10:14:33.133Z,98135.81
2022-10-24T10:17:02.833Z,98129.19
2022-10-24T10:19:33.030Z,98132.59
2022-10-24T10:22:04.443Z,98129.41
2022-10-24T10:24:39.671Z,98134.81
2022-10-24T10:27:32.287Z,98126.31
2022-10-24T10:30:20.185Z,98117.59
2022-10-24T10:33:12.602Z,98105.50
2022-10-24T10:35:44.324Z,98120.31
2022-10-24T10:38:28.992Z,98133.97
2022-10-24T10:41:01.744Z,98132.69
2022-10-24T10:43:33.646Z,98133.81
2022-10-24T10:46:16.890Z,98131.38
2022-10-24T10:49:02.518Z,98138.94
2022-10-24T10:51:38.208Z,98130.91
2022-10-24T10:54:14.121Z,98112.56
2022-10-24T10:56:46.982Z,98108.72
2022-10-24T10:59:30.154Z,98118.25
2022-10-24T11:02:02.314Z,98113.25
2022-10-24T11:04:35.249Z,98114.34
2022-10-24T11:07:11.176Z,98117.06
2022-10-24T11:09:44.104Z,98110.19
2022-10-24T11:12:17.214Z,98107.47
2022-10-24T11:14:49.501Z,98101.84
2022-10-24T11:17:21.433Z,98107.84
2022-10-24T11:20:06.501Z,98115.09
2022-10-24T11:22:38.743Z,98108.31
2022-10-24T11:25:10.948Z,98113.47
2022-10-24T11:27:42.500Z,98092.44
2022-10-24T11:30:15.224Z,98103.75
2022-10-24T11:32:49.058Z,98096.69
2022-10-24T11:35:25.765Z,98101.63
2022-10-24T11:37:58.159Z,98102.59
2022-10-24T11:40:30.230Z,98110.69
2022-10-24T11:43:03.780Z,98120.50
2022-10-24T11:45:35.851Z,98110.28
2022-10-24T11:48:13.456Z,98117.88
2022-10-24T11:50:48.255Z,98112.44
2022-10-24T11:53:25.059Z,98112.94
2022-10-24T11:55:58.550Z,98104.19
2022-10-24T11:58:29.213Z,98096.88
2022-10-24T12:01:12.546Z,98089.59
2022-10-24T12:03:59.534Z,98089.19
2022-10-24T12:06:41.836Z,98094.28
2022-10-24T12:09:21.319Z,98099.38
2022-10-24T12:12:12.045Z,98094.53
2022-10-24T12:14:58.318Z,98095.16
2022-10-24T12:17:37.215Z,98092.81
2022-10-24T12:20:07.782Z,98084.00
2022-10-24T12:22:39.441Z,98082.78
2022-10-24T12:25:16.238Z,98084.97
2022-10-24T12:27:45.913Z,98080.31
2022-10-24T12:30:19.447Z,98077.13
2022-10-24T12:32:49.627Z,98077.25
2022-10-24T12:35:38.799Z,98067.91
2022-10-24T12:38:17.022Z,98074.44
2022-10-24T12:40:52.258Z,98066.03
2022-10-24T12:43:36.021Z,98071.69
2022-10-24T12:46:37.802Z,98062.84
2022-10-24T12:49:24.238Z,98060.03
2022-10-24T12:51:54.233Z,98047.47
2022-10-24T12:54:40.190Z,98049.97
2022-10-24T12:57:32.783Z,98043.97
2022-10-24T13:00:02.787Z,98058.03
2022-10-24T13:03:04.825Z,98047.59
2022-10-24T13:05:48.993Z,98062.03
2022-10-24T13:08:30.636Z,98059.63
2022-10-24T13:11:11.924Z,98058.41
2022-10-24T13:13:54.993Z,98056.00
2022-10-24T13:16:33.360Z,98049.59
2022-10-24T13:19:09.556Z,98061.97
2022-10-24T13:21:46.851Z,98062.41
2022-10-24T13:24:30.354Z,98066.44
2022-10-24T13:27:25.346Z,98064.44
2022-10-24T13:30:35.194Z,98079.69
2022-10-24T13:33:42.902Z,98078.81
2022-10-24T13:36:18.027Z,98063.38
2022-10-24T13:38:51.892Z,98070.50
2022-10-24T13:41:25.673Z,98061.69
2022-10-24T13:43:55.031Z,98072.09
2022-10-24T13:46:28.172Z,98062.56
2022-10-24T13:48:57.661Z,98061.69
2022-10-24T13:51:36.821Z,98062.16
2022-10-24T13:54:09.783Z,98063.81
2022-10-24T13:56:40.629Z,98056.03
2022-10-24T13:59:27.729Z,98060.56
2022-10-24T14:01:56.434Z,98076.50
2022-10-24T14:04:25.363Z,98058.34
2022-10-24T14:07:01.879Z,98070.56
2022-10-24T14:09:30.209Z,98070.22
2022-10-24T14:11:59.662Z,98069.03
2022-10-24T14:14:30.367Z,98071.44
2022-10-24T14:17:23.192Z,98043.28
2022-10-24T14:19:55.405Z,98058.38
2022-10-24T14:22:28.099Z,98068.81
2022-10-24T14:24:57.362Z,98066.50
2022-10-24T14:27:25.942Z,98073.66
2022-10-24T14:30:00.156Z,98073.28
2022-10-24T14:32:30.195Z,98069.16
2022-10-24T14:37:37.018Z,98079.03
2022-10-24T14:40:06.568Z,98083.56
2022-10-24T14:42:35.024Z,98073.53
2022-10-24T14:45:03.633Z,98068.88
2022-10-24T14:47:34.697Z,98068.94
2022-10-24T14:50:04.594Z,98066.41
2022-10-24T14:52:37.091Z,98076.94
2022-10-24T14:55:08.202Z,98070.63
2022-10-24T14:57:36.984Z,98073.91
2022-10-24T15:00:08.467Z,98071.00
2022-10-24T15:02:42.051Z,98066.56
2022-10-24T15:05:28.718Z,98065.91
2022-10-24T15:08:21.767Z,98065.56
2022-10-24T15:10:51.396Z,98056.53
2022-10-24T15:13:21.651Z,98058.75
2022-10-24T15:15:55.212Z,98072.22
2022-10-24T15:18:25.418Z,98064.84
2022-10-24T15:20:56.145Z,98067.00
2022-10-24T15:23:29.211Z,98062.81
2022-10-24T15:26:03.507Z,98069.50
2022-10-24T15:28:46.994Z,98070.91
2022-10-24T15:31:17.040Z,98073.97
2022-10-24T15:33:47.895Z,98084.03
2022-10-24T15:36:20.812Z,98082.75
2022-10-24T15:38:55.067Z,98081.22
2022-10-24T15:41:23.522Z,98074.88
2022-10-24T15:43:52.317Z,98077.19
2022-10-24T15:46:22.037Z,98073.69
2022-10-24T15:48:50.602Z,98073.91
2022-10-24T15:51:20.990Z,98074.56
2022-10-24T15:53:51.636Z,98081.19
2022-10-24T15:56:20.036Z,98086.63
2022-10-24T16:01:27.481Z,98084.19
2022-10-24T16:03:56.079Z,98088.22
2022-10-24T16:06:24.610Z,98082.72
2022-10-24T16:08:54.651Z,98079.88
2022-10-24T16:11:24.447Z,98082.91
2022-10-24T16:13:53.071Z,98082.78
2022-10-24T16:16:21.800Z,98081.03
2022-10-24T16:18:50.179Z,98087.50
2022-10-24T16:21:20.753Z,98090.88
2022-10-24T16:26:20.953Z,98091.84
2022-10-24T16:28:49.378Z,98092.09
2022-10-24T16:31:19.883Z,98097.75
2022-10-24T16:33:48.575Z,98082.78
2022-10-24T16:36:20.803Z,98085.88
2022-10-24T16:38:52.221Z,98078.94
2022-10-24T16:41:23.633Z,98084.22
2022-10-24T16:43:54.427Z,98071.38
2022-10-24T16:46:24.801Z,98084.16
2022-10-24T16:48:53.105Z,98089.81
2022-10-24T16:51:25.143Z,98084.25
2022-10-24T16:53:53.487Z,98078.59
2022-10-24T16:56:23.526Z,98081.53
2022-10-24T16:58:51.929Z,98081.16
2022-10-24T17:01:22.248Z,98075.94
2022-10-24T17:03:50.830Z,98077.50
2022-10-24T17:06:19.795Z,98084.91
2022-10-24T17:08:48.445Z,98082.28
2022-10-24T17:11:43.246Z,98090.19
2022-10-24T17:16:40.265Z,98084.97
2022-10-24T17:19:17.252Z,98084.34
2022-10-24T17:21:48.187Z,98082.44
2022-10-24T17:24:18.093Z,98084.53
2022-10-24T17:26:47.551Z,98086.59
2022-10-24T17:29:25.414Z,98081.97
2022-10-24T17:31:54.247Z,98079.91
2022-10-24T17:34:23.345Z,98079.72
2022-10-24T17:36:57.879Z,98093.13
2022-10-24T17:39:29.072Z,98089.47
2022-10-24T17:41:57.551Z,98099.09
2022-10-24T17:44:28.297Z,98103.09
2022-10-24T17:46:58.374Z,98104.72
2022-10-24T17:49:26.826Z,98101.94
2022-10-24T17:51:55.338Z,98095.13
2022-10-24T17:54:23.776Z,98080.59
2022-10-24T17:56:52.393Z,98079.88
2022-10-24T17:59:22.115Z,98084.88
2022-10-24T18:01:52.236Z,98076.09
2022-10-24T18:04:21.323Z,98066.38
2022-10-24T18:06:49.818Z,98075.03
2022-10-24T18:09:18.189Z,98075.69
2022-10-24T18:11:46.935Z,98066.59
2022-10-24T18:14:15.431Z,98069.75
2022-10-24T18:16:43.884Z,98071.19
2022-10-24T18:19:13.657Z,98078.91
2022-10-24T18:21:42.400Z,98082.47
2022-10-24T18:24:11.025Z,98081.56
2022-10-24T18:26:39.541Z,98085.16
2022-10-24T18:29:07.812Z,98082.72
2022-10-24T18:31:36.330Z,98082.84
2022-10-24T18:34:08.492Z,98089.47
2022-10-24T18:36:38.837Z,98085.94
2022-10-24T18:39:07.685Z,98097.44
2022-10-24T18:41:39.780Z,98084.34
2022-10-24T18:44:22.843Z,98091.59
2022-10-24T18:46:53.050Z,98079.09
2022-10-24T18:49:22.133Z,98080.97
2022-10-24T18:52:01.686Z,98071.84
2022-10-24T18:54:30.769Z,98081.06
2022-10-24T18:57:00.865Z,98079.97
2022-10-24T18:59:31.157Z,98082.63
2022-10-24T19:02:10.354Z,98075.28
2022-10-24T19:04:41.927Z,98075.69
2022-10-24T19:07:12.279Z,98074.00
2022-10-24T19:09:41.157Z,98082.06
2022-10-24T19:12:10.684Z,98079.88
2022-10-24T19:14:39.683Z,98077.13
2022-10-24T19:17:08.931Z,98079.09
2022-10-24T19:19:37.417Z,98090.81
2022-10-24T19:22:05.835Z,98085.69
2022-10-24T19:24:35.364Z,98076.34
2022-10-24T19:27:03.998Z,98085.31
2022-10-24T19:29:32.393Z,98073.94
2022-10-24T19:32:01.278Z,98081.13
2022-10-24T19:34:30.972Z,98078.22
2022-10-24T19:37:00.177Z,98080.13
2022-10-24T19:39:31.564Z,98069.25
2022-10-24T19:42:03.807Z,98071.47
2022-10-24T19:44:32.159Z,98075.59
2022-10-24T19:47:00.691Z,98079.69
2022-10-24T19:49:28.977Z,98083.13
2022-10-24T19:51:59.757Z,98084.91
2022-10-24T19:54:28.360Z,98088.06
2022-10-24T19:56:57.348Z,98093.97
2022-10-24T19:59:31.921Z,98087.97
2022-10-24T20:02:00.528Z,98096.41
2022-10-24T20:04:28.978Z,98097.31
2022-10-24T20:06:57.578Z,98097.31
2022-10-24T20:09:26.206Z,98095.16
2022-10-24T20:11:54.547Z,98094.38
2022-10-24T20:14:24.595Z,98109.53
2022-10-24T20:16:54.380Z,98115.44
2022-10-24T20:19:22.481Z,98105.53
2022-10-24T20:21:50.832Z,98114.03
2022-10-24T20:24:19.085Z,98110.09
2022-10-24T20:26:47.374Z,98112.72
2022-10-24T20:29:15.754Z,98113.44
2022-10-24T20:31:46.543Z,98107.81
2022-10-24T20:34:16.431Z,98115.16
2022-10-24T20:36:47.384Z,98110.69
2022-10-24T20:39:20.840Z,98114.72
2022-10-24T20:41:53.212Z,98111.06
2022-10-24T20:44:22.755Z,98113.94
2022-10-24T20:46:53.291Z,98114.56
2022-10-24T20:49:22.799Z,98115.72
2022-10-24T20:51:51.146Z,98108.84
2022-10-24T20:54:19.745Z,98111.34
2022-10-24T20:56:48.143Z,98102.41
2022-10-24T20:59:17.038Z,98105.63
2022-10-24T21:01:45.893Z,98105.81
2022-10-24T21:04:16.934Z,98109.84
2022-10-24T21:06:49.953Z,98111.22
2022-10-24T21:09:18.266Z,98109.81
2022-10-24T21:11:46.702Z,98112.00
2022-10-24T21:14:15.025Z,98109.13
2022-10-24T21:16:43.605Z,98111.97
2022-10-24T21:19:11.792Z,98115.34
2022-10-24T21:21:40.764Z,98108.19
2022-10-24T21:24:15.277Z,98114.56
2022-10-24T21:26:44.005Z,98116.91
2022-10-24T21:29:32.157Z,98116.81
2022-10-24T21:32:00.699Z,98115.53
2022-10-24T21:34:31.734Z,98111.41
2022-10-24T21:37:03.218Z,98117.81
2022-10-24T21:39:32.993Z,98108.78
2022-10-24T21:42:01.622Z,98104.88
2022-10-24T21:44:30.115Z,98107.38
2022-10-24T21:46:58.615Z,98102.16
2022-10-24T21:49:26.922Z,98104.28
2022-10-24T21:51:55.277Z,98101.25
2022-10-24T21:54:25.331Z,98103.19
2022-10-24T21:56:55.007Z,98102.59
2022-10-24T21:59:23.824Z,98107.81
2022-10-24T22:01:53.347Z,98120.13
2022-10-24T22:04:22.034Z,98115.13
2022-10-24T22:06:51.098Z,98108.66
2022-10-24T22:09:20.531Z,98114.91
2022-10-24T22:11:48.907Z,98116.53
2022-10-24T22:14:19.195Z,98114.56
2022-10-24T22:16:47.807Z,98134.50
2022-10-24T22:19:16.309Z,98125.78
2022-10-24T22:21:46.750Z,98128.38
2022-10-24T22:24:16.427Z,98129.72
2022-10-24T22:26:45.121Z,98129.63
2022-10-24T22:29:16.181Z,98126.34
2022-10-24T22:31:46.133Z,98129.25
2022-10-24T22:34:17.419Z,98137.34
2022-10-24T22:36:56.898Z,98135.72
2022-10-24T22:39:27.813Z,98128.91
2022-10-24T22:41:56.978Z,98126.03
2022-10-24T22:44:25.969Z,98126.63
2022-10-24T22:47:26.000Z,98116.88
2022-10-24T22:50:01.248Z,98112.81
2022-10-24T22:52:30.164Z,98098.22
2022-10-24T22:54:58.854Z,98094.19
2022-10-24T22:57:27.742Z,98099.94
2022-10-24T22:59:56.596Z,98102.72
2022-10-24T23:02:30.210Z,98099.56
2022-10-24T23:05:05.094Z,98094.25
2022-10-24T23:07:39.676Z,98106.94
2022-10-24T23:10:12.094Z,98108.19
2022-10-24T23:12:41.318Z,98110.16
2022-10-24T23:15:14.015Z,98114.09
2022-10-24T23:17:45.726Z,98114.34
2022-10-24T23:20:37.074Z,98104.13
2022-10-24T23:23:17.115Z,98115.91
2022-10-24T23:25:57.674Z,98109.22
2022-10-24T23:28:31.853Z,98109.72
2022-10-24T23:31:01.017Z,98108.28
2022-10-24T23:33:31.336Z,98105.66
2022-10-24T23:36:01.374Z,98103.94
2022-10-24T23:38:30.268Z,98110.06
2022-10-24T23:40:58.891Z,98113.53
2022-10-24T23:43:28.020Z,98099.50
2022-10-24T23:45:59.756Z,98110.06
2022-10-24T23:48:49.874Z,98109.75
2022-10-24T23:51:21.889Z,98114.28
2022-10-24T23:53:53.005Z,98118.00
2022-10-24T23:56:23.065Z,98115.22
2022-10-24T23:58:52.036Z,98119.66
